Terminal Aerodrome Forecast
Issued by NWS

Home | Current Version | Previous Version | Text Only | Print | Product List | Glossary On
Versions: 1 2 3 4 5 6 7 8 9 10 11 12 13 14 15 16 17 18 19 20
000
FTUS46 KOTX 222339
TAFPUW
TAF
KPUW 222339Z 2300/2324 32006KT P6SM -SHRA VCTS SCT050CB BKN100
     FM230130 VRB04KT P6SM VCSH SCT050 BKN100
     FM230400 00000KT P6SM SCT060 BKN100
     FM231200 09005KT P6SM SCT060 BKN100
     FM232000 29004KT P6SM SCT060 BKN100=

USA.gov is the U.S. government's official web portal to all federal, state and local government web resources and services.